sensor_id;sensor_type;location;lat;lon;timestamp;pressure;altitude;pressure_sealevel;temperature;humidity
73748;BME280;62056;52.130;5.428;2023-12-20T00:02:16;101779.66;;;6.26;94.08
73748;BME280;62056;52.130;5.428;2023-12-20T00:04:43;101784.94;;;6.26;93.74
73748;BME280;62056;52.130;5.428;2023-12-20T00:07:10;101777.00;;;6.26;94.31
73748;BME280;62056;52.130;5.428;2023-12-20T00:09:36;101770.38;;;6.24;94.03
73748;BME280;62056;52.130;5.428;2023-12-20T00:12:03;101769.00;;;6.21;93.80
73748;BME280;62056;52.130;5.428;2023-12-20T00:14:30;101769.22;;;6.20;94.03
73748;BME280;62056;52.130;5.428;2023-12-20T00:16:57;101760.72;;;6.18;94.33
73748;BME280;62056;52.130;5.428;2023-12-20T00:19:23;101759.94;;;6.17;93.99
73748;BME280;62056;52.130;5.428;2023-12-20T00:21:50;101761.22;;;6.15;94.15
73748;BME280;62056;52.130;5.428;2023-12-20T00:24:17;101761.44;;;6.13;94.17
73748;BME280;62056;52.130;5.428;2023-12-20T00:26:44;101765.94;;;6.13;94.03
73748;BME280;62056;52.130;5.428;2023-12-20T00:29:11;101754.22;;;6.08;93.73
73748;BME280;62056;52.130;5.428;2023-12-20T00:31:38;101756.28;;;6.06;94.05
73748;BME280;62056;52.130;5.428;2023-12-20T00:34:05;101764.66;;;6.03;94.20
73748;BME280;62056;52.130;5.428;2023-12-20T00:36:31;101769.59;;;6.00;93.90
73748;BME280;62056;52.130;5.428;2023-12-20T00:38:58;101764.78;;;5.97;94.39
73748;BME280;62056;52.130;5.428;2023-12-20T00:41:25;101764.00;;;5.96;93.91
73748;BME280;62056;52.130;5.428;2023-12-20T00:43:52;101766.47;;;5.91;94.01
73748;BME280;62056;52.130;5.428;2023-12-20T00:46:18;101763.28;;;5.89;94.15
73748;BME280;62056;52.130;5.428;2023-12-20T00:48:46;101760.06;;;5.87;94.40
73748;BME280;62056;52.130;5.428;2023-12-20T00:51:12;101762.97;;;5.85;94.31
73748;BME280;62056;52.130;5.428;2023-12-20T00:53:40;101764.19;;;5.83;94.40
73748;BME280;62056;52.130;5.428;2023-12-20T00:56:07;101759.41;;;5.80;94.18
73748;BME280;62056;52.130;5.428;2023-12-20T00:58:33;101758.03;;;5.77;94.48
73748;BME280;62056;52.130;5.428;2023-12-20T01:01:00;101761.91;;;5.75;94.31
73748;BME280;62056;52.130;5.428;2023-12-20T01:03:27;101762.97;;;5.74;94.23
73748;BME280;62056;52.130;5.428;2023-12-20T01:05:53;101763.41;;;5.71;94.17
73748;BME280;62056;52.130;5.428;2023-12-20T01:08:20;101763.66;;;5.69;94.38
73748;BME280;62056;52.130;5.428;2023-12-20T01:10:47;101747.00;;;5.68;94.27
73748;BME280;62056;52.130;5.428;2023-12-20T01:13:13;101747.25;;;5.67;94.57
73748;BME280;62056;52.130;5.428;2023-12-20T01:15:40;101745.06;;;5.64;94.51
73748;BME280;62056;52.130;5.428;2023-12-20T01:18:08;101747.91;;;5.62;94.38
73748;BME280;62056;52.130;5.428;2023-12-20T01:20:35;101743.91;;;5.60;94.83
73748;BME280;62056;52.130;5.428;2023-12-20T01:23:02;101746.53;;;5.60;94.47
73748;BME280;62056;52.130;5.428;2023-12-20T01:25:29;101752.88;;;5.59;94.64
73748;BME280;62056;52.130;5.428;2023-12-20T01:27:56;101762.84;;;5.57;94.52
73748;BME280;62056;52.130;5.428;2023-12-20T01:30:23;101769.97;;;5.56;94.57
73748;BME280;62056;52.130;5.428;2023-12-20T01:32:51;101771.00;;;5.55;94.80
73748;BME280;62056;52.130;5.428;2023-12-20T01:35:17;101768.34;;;5.55;94.92
73748;BME280;62056;52.130;5.428;2023-12-20T01:37:44;101775.25;;;5.56;94.98
73748;BME280;62056;52.130;5.428;2023-12-20T01:40:11;101767.34;;;5.56;94.75
73748;BME280;62056;52.130;5.428;2023-12-20T01:42:38;101774.41;;;5.56;94.91
73748;BME280;62056;52.130;5.428;2023-12-20T01:45:05;101761.22;;;5.56;94.98
73748;BME280;62056;52.130;5.428;2023-12-20T01:47:32;101766.28;;;5.57;94.90
73748;BME280;62056;52.130;5.428;2023-12-20T01:49:59;101751.50;;;5.56;94.94
73748;BME280;62056;52.130;5.428;2023-12-20T01:52:26;101749.66;;;5.57;95.11
73748;BME280;62056;52.130;5.428;2023-12-20T01:54:53;101752.03;;;5.58;95.09
73748;BME280;62056;52.130;5.428;2023-12-20T01:57:23;101749.41;;;5.58;95.09
73748;BME280;62056;52.130;5.428;2023-12-20T01:59:50;101758.94;;;5.59;95.35
73748;BME280;62056;52.130;5.428;2023-12-20T02:02:17;101756.31;;;5.59;95.24
73748;BME280;62056;52.130;5.428;2023-12-20T02:04:43;101748.38;;;5.59;95.27
73748;BME280;62056;52.130;5.428;2023-12-20T02:07:11;101752.63;;;5.60;95.55
73748;BME280;62056;52.130;5.428;2023-12-20T02:09:38;101757.91;;;5.60;95.52
73748;BME280;62056;52.130;5.428;2023-12-20T02:12:06;101755.25;;;5.60;95.68
73748;BME280;62056;52.130;5.428;2023-12-20T02:14:32;101756.31;;;5.59;95.54
73748;BME280;62056;52.130;5.428;2023-12-20T02:16:59;101751.03;;;5.59;95.71
73748;BME280;62056;52.130;5.428;2023-12-20T02:19:26;101744.69;;;5.60;95.64
73748;BME280;62056;52.130;5.428;2023-12-20T02:22:05;101742.06;;;5.60;95.99
73748;BME280;62056;52.130;5.428;2023-12-20T02:24:32;101740.81;;;5.63;95.80
73748;BME280;62056;52.130;5.428;2023-12-20T02:26:59;101748.50;;;5.64;96.27
73748;BME280;62056;52.130;5.428;2023-12-20T02:29:25;101744.84;;;5.65;96.17
73748;BME280;62056;52.130;5.428;2023-12-20T02:31:52;101747.25;;;5.67;95.88
73748;BME280;62056;52.130;5.428;2023-12-20T02:34:19;101736.69;;;5.67;96.01
73748;BME280;62056;52.130;5.428;2023-12-20T02:36:46;101740.91;;;5.68;96.00
73748;BME280;62056;52.130;5.428;2023-12-20T02:39:13;101736.69;;;5.67;96.01
73748;BME280;62056;52.130;5.428;2023-12-20T02:41:40;101742.75;;;5.67;96.15
73748;BME280;62056;52.130;5.428;2023-12-20T02:44:07;101738.28;;;5.68;96.45
73748;BME280;62056;52.130;5.428;2023-12-20T02:46:33;101730.94;;;5.70;96.47
73748;BME280;62056;52.130;5.428;2023-12-20T02:49:00;101730.72;;;5.72;96.47
73748;BME280;62056;52.130;5.428;2023-12-20T02:51:27;101724.38;;;5.73;96.75
73748;BME280;62056;52.130;5.428;2023-12-20T02:53:54;101721.53;;;5.74;96.36
73748;BME280;62056;52.130;5.428;2023-12-20T02:56:20;101726.00;;;5.74;96.38
73748;BME280;62056;52.130;5.428;2023-12-20T02:58:47;101713.59;;;5.74;96.65
73748;BME280;62056;52.130;5.428;2023-12-20T03:01:14;101715.44;;;5.74;96.38
73748;BME280;62056;52.130;5.428;2023-12-20T03:03:41;101713.25;;;5.71;96.82
73748;BME280;62056;52.130;5.428;2023-12-20T03:06:07;101710.41;;;5.72;96.85
73748;BME280;62056;52.130;5.428;2023-12-20T03:08:34;101720.50;;;5.75;96.75
73748;BME280;62056;52.130;5.428;2023-12-20T03:11:01;101714.19;;;5.76;96.96
73748;BME280;62056;52.130;5.428;2023-12-20T03:13:28;101710.50;;;5.77;97.15
73748;BME280;62056;52.130;5.428;2023-12-20T03:15:55;101710.25;;;5.79;96.71
73748;BME280;62056;52.130;5.428;2023-12-20T03:18:21;101704.19;;;5.78;96.46
73748;BME280;62056;52.130;5.428;2023-12-20T03:20:48;101703.97;;;5.80;97.07
73748;BME280;62056;52.130;5.428;2023-12-20T03:23:17;101707.16;;;5.82;97.20
73748;BME280;62056;52.130;5.428;2023-12-20T03:25:43;101700.84;;;5.83;97.31
73748;BME280;62056;52.130;5.428;2023-12-20T03:28:10;101693.75;;;5.83;97.14
73748;BME280;62056;52.130;5.428;2023-12-20T03:30:37;101683.97;;;5.84;97.40
73748;BME280;62056;52.130;5.428;2023-12-20T03:33:04;101693.28;;;5.86;96.99
73748;BME280;62056;52.130;5.428;2023-12-20T03:35:31;101688.78;;;5.87;97.32
73748;BME280;62056;52.130;5.428;2023-12-20T03:37:57;101695.69;;;5.88;97.10
73748;BME280;62056;52.130;5.428;2023-12-20T03:40:26;101692.00;;;5.89;97.60
73748;BME280;62056;52.130;5.428;2023-12-20T03:42:53;101697.84;;;5.91;97.51
73748;BME280;62056;52.130;5.428;2023-12-20T03:45:21;101690.72;;;5.92;97.51
73748;BME280;62056;52.130;5.428;2023-12-20T03:47:48;101704.50;;;5.94;97.19
73748;BME280;62056;52.130;5.428;2023-12-20T03:50:15;101700.03;;;5.94;97.61
73748;BME280;62056;52.130;5.428;2023-12-20T03:52:42;101700.63;;;5.96;97.72
73748;BME280;62056;52.130;5.428;2023-12-20T03:55:09;101697.72;;;5.98;97.34
73748;BME280;62056;52.130;5.428;2023-12-20T03:57:36;101697.72;;;5.98;97.28
73748;BME280;62056;52.130;5.428;2023-12-20T04:00:03;101702.00;;;5.99;97.49
73748;BME280;62056;52.130;5.428;2023-12-20T04:02:30;101686.94;;;5.99;97.53
73748;BME280;62056;52.130;5.428;2023-12-20T04:04:57;101692.22;;;5.99;97.55
73748;BME280;62056;52.130;5.428;2023-12-20T04:07:24;101689.81;;;5.98;97.99
73748;BME280;62056;52.130;5.428;2023-12-20T04:09:50;101695.91;;;5.98;97.64
73748;BME280;62056;52.130;5.428;2023-12-20T04:12:17;101696.50;;;6.00;97.56
73748;BME280;62056;52.130;5.428;2023-12-20T04:14:44;101699.13;;;6.00;97.69
73748;BME280;62056;52.130;5.428;2023-12-20T04:17:10;101690.94;;;6.02;97.83
73748;BME280;62056;52.130;5.428;2023-12-20T04:19:39;101691.53;;;6.04;97.67
73748;BME280;62056;52.130;5.428;2023-12-20T04:22:06;101682.81;;;6.03;97.79
73748;BME280;62056;52.130;5.428;2023-12-20T04:24:33;101678.09;;;6.05;97.66
73748;BME280;62056;52.130;5.428;2023-12-20T04:27:00;101681.53;;;6.06;97.93
73748;BME280;62056;52.130;5.428;2023-12-20T04:29:26;101680.00;;;6.10;97.68
73748;BME280;62056;52.130;5.428;2023-12-20T04:31:53;101691.41;;;6.11;97.70
73748;BME280;62056;52.130;5.428;2023-12-20T04:34:20;101692.78;;;6.13;97.91
73748;BME280;62056;52.130;5.428;2023-12-20T04:36:47;101688.84;;;6.16;97.67
73748;BME280;62056;52.130;5.428;2023-12-20T04:39:14;101705.25;;;6.18;97.62
73748;BME280;62056;52.130;5.428;2023-12-20T04:41:41;101692.63;;;6.20;97.49
73748;BME280;62056;52.130;5.428;2023-12-20T04:44:08;101685.03;;;6.23;97.76
73748;BME280;62056;52.130;5.428;2023-12-20T04:46:35;101670.78;;;6.24;97.24
73748;BME280;62056;52.130;5.428;2023-12-20T04:49:02;101679.28;;;6.26;97.08
73748;BME280;62056;52.130;5.428;2023-12-20T04:51:28;101687.53;;;6.30;97.21
73748;BME280;62056;52.130;5.428;2023-12-20T04:53:56;101680.97;;;6.33;97.26
73748;BME280;62056;52.130;5.428;2023-12-20T04:56:23;101683.16;;;6.36;96.96
73748;BME280;62056;52.130;5.428;2023-12-20T04:58:50;101668.44;;;6.40;96.66
73748;BME280;62056;52.130;5.428;2023-12-20T05:01:17;101669.00;;;6.42;97.11
73748;BME280;62056;52.130;5.428;2023-12-20T05:03:44;101670.59;;;6.43;96.76
73748;BME280;62056;52.130;5.428;2023-12-20T05:06:11;101661.13;;;6.47;96.87
73748;BME280;62056;52.130;5.428;2023-12-20T05:08:37;101667.00;;;6.49;96.62
73748;BME280;62056;52.130;5.428;2023-12-20T05:11:04;101668.84;;;6.48;96.86
73748;BME280;62056;52.130;5.428;2023-12-20T05:13:32;101671.81;;;6.52;96.47
73748;BME280;62056;52.130;5.428;2023-12-20T05:16:10;101669.75;;;6.54;96.58
73748;BME280;62056;52.130;5.428;2023-12-20T05:18:38;101679.47;;;6.54;96.58
73748;BME280;62056;52.130;5.428;2023-12-20T05:21:05;101675.03;;;6.54;96.75
73748;BME280;62056;52.130;5.428;2023-12-20T05:23:32;101670.31;;;6.56;96.02
73748;BME280;62056;52.130;5.428;2023-12-20T05:25:59;101671.09;;;6.57;96.52
73748;BME280;62056;52.130;5.428;2023-12-20T05:28:26;101676.13;;;6.58;96.36
73748;BME280;62056;52.130;5.428;2023-12-20T05:30:53;101680.38;;;6.59;96.05
73748;BME280;62056;52.130;5.428;2023-12-20T05:33:20;101672.69;;;6.58;96.37
73748;BME280;62056;52.130;5.428;2023-12-20T05:35:47;101680.16;;;6.61;96.13
73748;BME280;62056;52.130;5.428;2023-12-20T05:38:14;101674.88;;;6.61;96.14
73748;BME280;62056;52.130;5.428;2023-12-20T05:40:40;101678.06;;;6.63;96.60
73748;BME280;62056;52.130;5.428;2023-12-20T05:43:07;101678.88;;;6.63;95.89
73748;BME280;62056;52.130;5.428;2023-12-20T05:45:34;101674.38;;;6.64;94.94
73748;BME280;62056;52.130;5.428;2023-12-20T05:48:00;101673.34;;;6.65;96.11
73748;BME280;62056;52.130;5.428;2023-12-20T05:50:27;101671.50;;;6.65;95.78
73748;BME280;62056;52.130;5.428;2023-12-20T05:52:54;101665.97;;;6.67;95.50
73748;BME280;62056;52.130;5.428;2023-12-20T05:55:21;101668.63;;;6.67;95.48
73748;BME280;62056;52.130;5.428;2023-12-20T05:57:48;101678.13;;;6.68;95.35
73748;BME280;62056;52.130;5.428;2023-12-20T06:00:15;101677.13;;;6.69;95.54
73748;BME280;62056;52.130;5.428;2023-12-20T06:02:43;101674.22;;;6.71;95.25
73748;BME280;62056;52.130;5.428;2023-12-20T06:05:09;101681.91;;;6.72;94.99
73748;BME280;62056;52.130;5.428;2023-12-20T06:07:36;101664.19;;;6.73;95.00
73748;BME280;62056;52.130;5.428;2023-12-20T06:10:03;101674.53;;;6.74;94.85
73748;BME280;62056;52.130;5.428;2023-12-20T06:12:30;101662.94;;;6.75;94.57
73748;BME280;62056;52.130;5.428;2023-12-20T06:14:58;101669.81;;;6.76;94.73
73748;BME280;62056;52.130;5.428;2023-12-20T06:17:25;101663.50;;;6.77;94.33
73748;BME280;62056;52.130;5.428;2023-12-20T06:19:52;101659.00;;;6.78;94.84
73748;BME280;62056;52.130;5.428;2023-12-20T06:22:19;101662.22;;;6.80;94.58
73748;BME280;62056;52.130;5.428;2023-12-20T06:24:45;101655.06;;;6.80;94.53
73748;BME280;62056;52.130;5.428;2023-12-20T06:27:12;101661.97;;;6.81;94.95
73748;BME280;62056;52.130;5.428;2023-12-20T06:29:39;101650.59;;;6.81;94.48
73748;BME280;62056;52.130;5.428;2023-12-20T06:32:07;101664.38;;;6.83;94.61
73748;BME280;62056;52.130;5.428;2023-12-20T06:34:34;101661.50;;;6.84;94.25
73748;BME280;62056;52.130;5.428;2023-12-20T06:37:01;101655.97;;;6.86;94.25
73748;BME280;62056;52.130;5.428;2023-12-20T06:39:27;101654.91;;;6.87;95.18
73748;BME280;62056;52.130;5.428;2023-12-20T06:41:55;101656.53;;;6.88;94.17
73748;BME280;62056;52.130;5.428;2023-12-20T06:44:22;101662.13;;;6.92;94.25
73748;BME280;62056;52.130;5.428;2023-12-20T06:46:48;101655.25;;;6.91;94.60
73748;BME280;62056;52.130;5.428;2023-12-20T06:49:15;101651.53;;;6.92;94.22
73748;BME280;62056;52.130;5.428;2023-12-20T06:51:42;101644.44;;;6.92;94.53
73748;BME280;62056;52.130;5.428;2023-12-20T06:54:09;101644.16;;;6.94;94.25
73748;BME280;62056;52.130;5.428;2023-12-20T06:56:37;101646.00;;;6.93;93.73
73748;BME280;62056;52.130;5.428;2023-12-20T06:59:04;101643.13;;;6.95;94.04
73748;BME280;62056;52.130;5.428;2023-12-20T07:01:30;101649.00;;;6.97;93.55
73748;BME280;62056;52.130;5.428;2023-12-20T07:03:57;101640.00;;;6.98;93.73
73748;BME280;62056;52.130;5.428;2023-12-20T07:06:24;101637.13;;;6.99;93.78
73748;BME280;62056;52.130;5.428;2023-12-20T07:08:52;101645.06;;;6.99;93.62
73748;BME280;62056;52.130;5.428;2023-12-20T07:11:19;101640.56;;;7.00;93.50
73748;BME280;62056;52.130;5.428;2023-12-20T07:13:45;101649.88;;;7.02;93.41
73748;BME280;62056;52.130;5.428;2023-12-20T07:16:12;101646.16;;;7.03;93.36
73748;BME280;62056;52.130;5.428;2023-12-20T07:18:39;101646.16;;;7.03;93.37
73748;BME280;62056;52.130;5.428;2023-12-20T07:21:07;101642.22;;;7.06;93.40
73748;BME280;62056;52.130;5.428;2023-12-20T07:23:34;101637.75;;;7.06;93.04
73748;BME280;62056;52.130;5.428;2023-12-20T07:26:01;101633.03;;;7.08;93.73
73748;BME280;62056;52.130;5.428;2023-12-20T07:28:28;101635.41;;;7.10;93.53
73748;BME280;62056;52.130;5.428;2023-12-20T07:30:54;101626.44;;;7.11;92.93
73748;BME280;62056;52.130;5.428;2023-12-20T07:33:21;101642.09;;;7.13;92.96
73748;BME280;62056;52.130;5.428;2023-12-20T07:35:48;101624.91;;;7.15;93.55
73748;BME280;62056;52.130;5.428;2023-12-20T07:38:15;101612.81;;;7.19;94.03
73748;BME280;62056;52.130;5.428;2023-12-20T07:40:42;101628.50;;;7.26;94.70
73748;BME280;62056;52.130;5.428;2023-12-20T07:43:09;101618.78;;;7.32;95.23
73748;BME280;62056;52.130;5.428;2023-12-20T07:45:36;101623.41;;;7.41;95.84
73748;BME280;62056;52.130;5.428;2023-12-20T07:48:03;101627.47;;;7.49;96.09
73748;BME280;62056;52.130;5.428;2023-12-20T07:50:29;101628.41;;;7.60;95.58
73748;BME280;62056;52.130;5.428;2023-12-20T07:52:56;101633.03;;;7.69;96.89
73748;BME280;62056;52.130;5.428;2023-12-20T07:55:23;101650.56;;;7.76;97.34
73748;BME280;62056;52.130;5.428;2023-12-20T07:57:49;101642.44;;;7.82;97.54
73748;BME280;62056;52.130;5.428;2023-12-20T08:00:17;101654.44;;;7.90;98.02
73748;BME280;62056;52.130;5.428;2023-12-20T08:02:44;101656.34;;;7.95;98.11
73748;BME280;62056;52.130;5.428;2023-12-20T08:05:11;101651.91;;;8.00;97.66
73748;BME280;62056;52.130;5.428;2023-12-20T08:07:38;101659.41;;;8.08;99.11
73748;BME280;62056;52.130;5.428;2023-12-20T08:10:05;101661.78;;;8.10;98.16
73748;BME280;62056;52.130;5.428;2023-12-20T08:12:32;101657.34;;;8.16;98.50
73748;BME280;62056;52.130;5.428;2023-12-20T08:15:00;101660.34;;;8.24;98.45
73748;BME280;62056;52.130;5.428;2023-12-20T08:17:27;101658.00;;;8.28;98.06
73748;BME280;62056;52.130;5.428;2023-12-20T08:19:54;101656.16;;;8.28;97.52
73748;BME280;62056;52.130;5.428;2023-12-20T08:22:21;101654.13;;;8.36;98.16
73748;BME280;62056;52.130;5.428;2023-12-20T08:24:48;101647.19;;;8.35;96.80
73748;BME280;62056;52.130;5.428;2023-12-20T08:27:14;101647.25;;;8.40;97.54
73748;BME280;62056;52.130;5.428;2023-12-20T08:29:43;101643.34;;;8.42;97.09
73748;BME280;62056;52.130;5.428;2023-12-20T08:32:14;101642.28;;;8.43;96.40
73748;BME280;62056;52.130;5.428;2023-12-20T08:34:43;101639.44;;;8.50;97.47
73748;BME280;62056;52.130;5.428;2023-12-20T08:37:10;101641.81;;;8.51;96.04
73748;BME280;62056;52.130;5.428;2023-12-20T08:39:36;101646.34;;;8.56;95.76
73748;BME280;62056;52.130;5.428;2023-12-20T08:42:03;101630.72;;;8.55;95.19
73748;BME280;62056;52.130;5.428;2023-12-20T08:44:30;101649.56;;;8.58;96.23
73748;BME280;62056;52.130;5.428;2023-12-20T08:46:57;101645.88;;;8.59;94.64
73748;BME280;62056;52.130;5.428;2023-12-20T08:49:24;101637.94;;;8.64;94.89
73748;BME280;62056;52.130;5.428;2023-12-20T08:51:52;101637.38;;;8.62;94.29
73748;BME280;62056;52.130;5.428;2023-12-20T08:54:24;101644.06;;;8.65;95.04
73748;BME280;62056;52.130;5.428;2023-12-20T08:56:51;101642.75;;;8.67;95.47
73748;BME280;62056;52.130;5.428;2023-12-20T08:59:20;101638.22;;;8.63;93.20
73748;BME280;62056;52.130;5.428;2023-12-20T09:01:47;101648.28;;;8.66;94.81
73748;BME280;62056;52.130;5.428;2023-12-20T09:04:15;101636.59;;;8.62;95.05
73748;BME280;62056;52.130;5.428;2023-12-20T09:06:42;101645.88;;;8.59;95.02
73748;BME280;62056;52.130;5.428;2023-12-20T09:09:09;101646.63;;;8.55;94.75
73748;BME280;62056;52.130;5.428;2023-12-20T09:11:40;101644.53;;;8.57;95.46
73748;BME280;62056;52.130;5.428;2023-12-20T09:14:08;101633.31;;;8.49;94.60
73748;BME280;62056;52.130;5.428;2023-12-20T09:16:38;101634.63;;;8.47;95.63
73748;BME280;62056;52.130;5.428;2023-12-20T09:22:02;101638.88;;;8.48;96.34
73748;BME280;62056;52.130;5.428;2023-12-20T09:24:31;101633.03;;;8.46;95.57
73748;BME280;62056;52.130;5.428;2023-12-20T09:26:58;101630.66;;;8.49;95.65
73748;BME280;62056;52.130;5.428;2023-12-20T09:29:28;101629.88;;;8.49;96.26
73748;BME280;62056;52.130;5.428;2023-12-20T09:32:14;101632.28;;;8.50;96.18
73748;BME280;62056;52.130;5.428;2023-12-20T09:35:24;101635.16;;;8.49;95.87
73748;BME280;62056;52.130;5.428;2023-12-20T09:38:20;101635.75;;;8.56;96.20
73748;BME280;62056;52.130;5.428;2023-12-20T09:41:11;101625.44;;;8.60;95.29
73748;BME280;62056;52.130;5.428;2023-12-20T09:43:42;101639.75;;;8.59;94.76
73748;BME280;62056;52.130;5.428;2023-12-20T09:46:11;101637.69;;;8.66;95.05
73748;BME280;62056;52.130;5.428;2023-12-20T09:49:05;101634.53;;;8.69;94.40
73748;BME280;62056;52.130;5.428;2023-12-20T09:51:47;101640.66;;;8.75;94.10
73748;BME280;62056;52.130;5.428;2023-12-20T09:54:16;101638.56;;;8.77;94.15
73748;BME280;62056;52.130;5.428;2023-12-20T09:56:43;101631.97;;;8.79;92.62
73748;BME280;62056;52.130;5.428;2023-12-20T09:59:13;101631.22;;;8.89;93.67
73748;BME280;62056;52.130;5.428;2023-12-20T10:01:42;101626.22;;;8.93;92.80
73748;BME280;62056;52.130;5.428;2023-12-20T10:04:15;101633.09;;;8.94;92.95
73748;BME280;62056;52.130;5.428;2023-12-20T10:06:55;101643.72;;;8.94;90.93
73748;BME280;62056;52.130;5.428;2023-12-20T10:09:38;101645.66;;;9.03;92.09
73748;BME280;62056;52.130;5.428;2023-12-20T10:12:37;101644.13;;;9.13;91.14
73748;BME280;62056;52.130;5.428;2023-12-20T10:19:09;101659.53;;;9.16;89.47
73748;BME280;62056;52.130;5.428;2023-12-20T10:21:55;101652.66;;;9.20;90.19
73748;BME280;62056;52.130;5.428;2023-12-20T10:25:30;101650.56;;;9.27;90.00
73748;BME280;62056;52.130;5.428;2023-12-20T10:36:33;101640.53;;;9.39;89.16
73748;BME280;62056;52.130;5.428;2023-12-20T10:39:02;101632.03;;;9.37;89.94
73748;BME280;62056;52.130;5.428;2023-12-20T10:41:34;101630.19;;;9.38;88.49
73748;BME280;62056;52.130;5.428;2023-12-20T10:44:06;101621.44;;;9.42;88.46
73748;BME280;62056;52.130;5.428;2023-12-20T11:15:08;101605.31;;;9.64;84.60
73748;BME280;62056;52.130;5.428;2023-12-20T11:30:53;101585.97;;;9.74;83.77
73748;BME280;62056;52.130;5.428;2023-12-20T11:33:38;101584.38;;;9.78;84.20
73748;BME280;62056;52.130;5.428;2023-12-20T11:46:49;101569.81;;;9.96;82.02
73748;BME280;62056;52.130;5.428;2023-12-20T11:53:30;101568.75;;;10.02;81.66
73748;BME280;62056;52.130;5.428;2023-12-20T11:55:58;101551.22;;;10.06;82.53
73748;BME280;62056;52.130;5.428;2023-12-20T11:58:25;101553.59;;;10.08;82.59
73748;BME280;62056;52.130;5.428;2023-12-20T12:00:52;101561.84;;;10.11;82.03
73748;BME280;62056;52.130;5.428;2023-12-20T12:03:20;101561.84;;;10.11;81.81
73748;BME280;62056;52.130;5.428;2023-12-20T12:05:48;101556.03;;;10.15;80.46
73748;BME280;62056;52.130;5.428;2023-12-20T12:08:19;101560.81;;;10.12;81.98
73748;BME280;62056;52.130;5.428;2023-12-20T12:10:50;101558.66;;;10.20;80.63
73748;BME280;62056;52.130;5.428;2023-12-20T12:13:17;101558.16;;;10.12;79.87
73748;BME280;62056;52.130;5.428;2023-12-20T12:15:46;101564.53;;;10.17;81.01
73748;BME280;62056;52.130;5.428;2023-12-20T12:18:17;101572.50;;;10.06;79.72
73748;BME280;62056;52.130;5.428;2023-12-20T12:20:45;101560.25;;;10.21;80.51
73748;BME280;62056;52.130;5.428;2023-12-20T12:23:13;101569.81;;;10.11;80.13
73748;BME280;62056;52.130;5.428;2023-12-20T12:25:44;101571.97;;;10.15;80.56
73748;BME280;62056;52.130;5.428;2023-12-20T12:28:11;101570.88;;;10.16;80.23
73748;BME280;62056;52.130;5.428;2023-12-20T12:30:38;101554.94;;;10.16;80.49
73748;BME280;62056;52.130;5.428;2023-12-20T12:33:19;101548.28;;;10.18;80.88
73748;BME280;62056;52.130;5.428;2023-12-20T12:36:03;101535.53;;;10.20;80.94
73748;BME280;62056;52.130;5.428;2023-12-20T12:38:34;101535.53;;;10.20;80.28
73748;BME280;62056;52.130;5.428;2023-12-20T12:41:01;101531.56;;;10.18;81.47
73748;BME280;62056;52.130;5.428;2023-12-20T12:43:28;101536.31;;;10.21;80.24
73748;BME280;62056;52.130;5.428;2023-12-20T12:45:56;101532.63;;;10.22;81.03
73748;BME280;62056;52.130;5.428;2023-12-20T12:48:23;101521.72;;;10.18;81.33
73748;BME280;62056;52.130;5.428;2023-12-20T12:50:50;101515.59;;;10.23;81.00
73748;BME280;62056;52.130;5.428;2023-12-20T12:53:19;101512.66;;;10.24;81.48
73748;BME280;62056;52.130;5.428;2023-12-20T12:55:49;101512.94;;;10.18;80.45
73748;BME280;62056;52.130;5.428;2023-12-20T12:58:16;101521.72;;;10.18;80.41
73748;BME280;62056;52.130;5.428;2023-12-20T13:00:45;101509.75;;;10.21;81.33
73748;BME280;62056;52.130;5.428;2023-12-20T13:03:12;101504.97;;;10.23;81.09
73748;BME280;62056;52.130;5.428;2023-12-20T13:05:39;101494.84;;;10.25;80.82
73748;BME280;62056;52.130;5.428;2023-12-20T13:08:10;101507.38;;;10.19;80.66
73748;BME280;62056;52.130;5.428;2023-12-20T13:10:38;101506.03;;;10.22;80.93
73748;BME280;62056;52.130;5.428;2023-12-20T13:13:05;101501.25;;;10.24;80.76
73748;BME280;62056;52.130;5.428;2023-12-20T13:15:32;101484.78;;;10.22;81.24
73748;BME280;62056;52.130;5.428;2023-12-20T13:17:59;101494.59;;;10.16;81.09
73748;BME280;62056;52.130;5.428;2023-12-20T13:20:27;101483.69;;;10.23;80.84
73748;BME280;62056;52.130;5.428;2023-12-20T13:22:54;101479.97;;;10.19;80.03
73748;BME280;62056;52.130;5.428;2023-12-20T13:25:20;101469.38;;;10.13;80.87
73748;BME280;62056;52.130;5.428;2023-12-20T13:27:48;101462.47;;;10.12;80.80
73748;BME280;62056;52.130;5.428;2023-12-20T13:30:16;101455.53;;;10.11;80.48
73748;BME280;62056;52.130;5.428;2023-12-20T13:32:44;101460.59;;;10.13;80.26
73748;BME280;62056;52.130;5.428;2023-12-20T13:35:13;101463.00;;;10.15;80.57
73748;BME280;62056;52.130;5.428;2023-12-20T13:37:40;101443.88;;;10.12;80.73
73748;BME280;62056;52.130;5.428;2023-12-20T13:40:07;101444.09;;;10.16;80.89
73748;BME280;62056;52.130;5.428;2023-12-20T13:42:41;101434.78;;;10.19;80.70
73748;BME280;62056;52.130;5.428;2023-12-20T13:45:09;101436.94;;;10.11;80.02
73748;BME280;62056;52.130;5.428;2023-12-20T13:47:37;101439.06;;;10.09;80.44
73748;BME280;62056;52.130;5.428;2023-12-20T13:50:05;101440.69;;;10.10;79.60
73748;BME280;62056;52.130;5.428;2023-12-20T13:52:32;101433.75;;;10.09;79.72
73748;BME280;62056;52.130;5.428;2023-12-20T13:55:04;101440.66;;;10.16;79.71
73748;BME280;62056;52.130;5.428;2023-12-20T13:57:35;101440.69;;;10.10;78.84
73748;BME280;62056;52.130;5.428;2023-12-20T14:00:20;101447.31;;;10.13;80.14
73748;BME280;62056;52.130;5.428;2023-12-20T14:02:47;101420.97;;;10.22;79.88
73748;BME280;62056;52.130;5.428;2023-12-20T14:05:17;101445.44;;;10.13;79.65
73748;BME280;62056;52.130;5.428;2023-12-20T14:07:51;101441.22;;;10.12;79.56
73748;BME280;62056;52.130;5.428;2023-12-20T14:16:38;101432.94;;;10.19;80.37
73748;BME280;62056;52.130;5.428;2023-12-20T14:19:28;101437.47;;;10.13;79.38
73748;BME280;62056;52.130;5.428;2023-12-20T14:21:55;101444.63;;;10.18;80.79
73748;BME280;62056;52.130;5.428;2023-12-20T14:24:22;101442.53;;;10.15;80.83